Time;durP1;ratioP1;P1;durP2;ratioP2;P2;SDS_P1;SDS_P2;PMS_P1;PMS_P2;Temp;Humidity;BMP_temperature;BMP_pressure;BME280_temperature;BME280_humidity;BME280_pressure;Samples;Min_cycle;Max_cycle;Signal;HPM_P1;HPM_P2
2022/01/19 00:01:12;;;;;;;7.33;4.97;;;2.70;99.90;;;;;;5030188;28;20231;-71
2022/01/19 00:03:38;;;;;;;7.87;4.90;;;2.60;99.90;;;;;;5032143;28;20204;-69
2022/01/19 00:06:05;;;;;;;6.90;4.73;;;2.60;99.90;;;;;;5027163;28;20574;-69
2022/01/19 00:08:31;;;;;;;6.47;4.30;;;2.60;99.90;;;;;;5027634;28;20177;-69
2022/01/19 00:10:57;;;;;;;5.93;4.43;;;2.60;99.90;;;;;;5029523;28;20177;-69
2022/01/19 00:13:23;;;;;;;6.70;4.93;;;2.60;99.90;;;;;;5029473;28;20558;-69
2022/01/19 00:15:50;;;;;;;6.40;4.57;;;2.60;99.90;;;;;;5033262;28;20172;-69
2022/01/19 00:18:18;;;;;;;4.93;4.30;;;2.60;99.90;;;;;;5028914;28;20543;-70
2022/01/19 00:20:45;;;;;;;8.07;5.17;;;2.60;99.90;;;;;;5028333;28;20192;-70
2022/01/19 00:23:11;;;;;;;5.60;4.30;;;2.60;99.90;;;;;;5026595;28;20260;-70
2022/01/19 00:25:38;;;;;;;7.00;4.27;;;2.60;99.90;;;;;;5039741;28;20176;-70
2022/01/19 00:28:04;;;;;;;8.00;4.83;;;2.60;99.90;;;;;;5023183;28;20556;-70
2022/01/19 00:30:30;;;;;;;6.17;5.37;;;2.60;99.90;;;;;;5029986;28;20672;-70
2022/01/19 00:32:56;;;;;;;8.93;4.63;;;2.60;99.90;;;;;;5024753;28;20177;-70
2022/01/19 00:35:21;;;;;;;6.43;4.57;;;2.60;99.90;;;;;;5031139;28;20169;-71
2022/01/19 00:37:47;;;;;;;4.93;4.43;;;2.70;99.90;;;;;;5025073;28;20184;-69
2022/01/19 00:40:14;;;;;;;4.63;4.03;;;2.70;99.90;;;;;;5028598;28;20184;-69
2022/01/19 00:42:44;;;;;;;5.37;4.37;;;2.70;99.90;;;;;;5023953;28;20189;-68
2022/01/19 00:45:12;;;;;;;7.23;4.53;;;2.80;99.90;;;;;;5027910;28;20177;-68
2022/01/19 00:47:37;;;;;;;5.23;3.83;;;2.80;99.90;;;;;;5027142;28;20241;-68
2022/01/19 00:50:05;;;;;;;6.50;4.07;;;2.70;99.90;;;;;;5027652;28;20221;-70
2022/01/19 00:52:31;;;;;;;11.23;6.03;;;2.60;99.90;;;;;;5016177;28;20173;-70
2022/01/19 00:54:56;;;;;;;6.43;5.27;;;2.60;99.90;;;;;;5018922;28;20208;-68
2022/01/19 00:57:22;;;;;;;6.53;5.10;;;2.50;99.90;;;;;;5023258;28;20277;-68
2022/01/19 00:59:48;;;;;;;8.77;5.77;;;2.50;99.90;;;;;;5016444;28;20216;-68
2022/01/19 01:02:14;;;;;;;6.13;4.43;;;2.60;99.90;;;;;;5021267;28;20215;-68
2022/01/19 01:04:40;;;;;;;6.30;4.50;;;2.50;99.90;;;;;;5016401;28;20212;-68
2022/01/19 01:07:05;;;;;;;5.10;4.60;;;2.50;99.90;;;;;;5016193;28;20191;-68
2022/01/19 01:09:31;;;;;;;9.60;4.43;;;2.50;99.90;;;;;;5019339;28;20569;-67
2022/01/19 01:20:08;;;;;;;5.37;3.83;;;2.10;99.90;;;;;;5026503;28;20242;-68
2022/01/19 01:22:35;;;;;;;5.60;3.77;;;2.00;99.90;;;;;;5014884;28;20266;-68
2022/01/19 01:25:00;;;;;;;8.03;4.77;;;2.00;99.90;;;;;;5019966;28;20743;-68
2022/01/19 01:27:26;;;;;;;5.73;4.13;;;1.90;99.90;;;;;;5021318;28;20177;-68
2022/01/19 01:29:52;;;;;;;7.80;4.10;;;1.70;99.90;;;;;;5028355;28;20291;-68
2022/01/19 01:32:18;;;;;;;4.97;3.93;;;1.70;99.90;;;;;;5030609;28;20173;-68
2022/01/19 01:34:44;;;;;;;4.77;3.97;;;1.70;99.90;;;;;;5028224;28;20188;-68
2022/01/19 01:37:09;;;;;;;5.13;4.47;;;1.70;99.90;;;;;;5022544;28;20557;-68
2022/01/19 01:39:35;;;;;;;6.10;4.13;;;1.70;99.90;;;;;;5026658;28;20192;-68
2022/01/19 01:42:00;;;;;;;5.17;4.47;;;1.70;99.90;;;;;;5023686;28;20264;-68
2022/01/19 01:44:34;;;;;;;5.80;4.27;;;1.70;99.90;;;;;;5025374;28;20201;-68
2022/01/19 01:47:01;;;;;;;8.27;4.77;;;1.60;99.90;;;;;;5023465;28;20671;-68
2022/01/19 01:55:19;;;;;;;5.60;4.60;;;1.40;99.90;;;;;;5029598;28;20258;-71
2022/01/19 01:57:45;;;;;;;6.47;4.43;;;1.40;99.90;;;;;;5024595;28;20191;-70
2022/01/19 02:00:15;;;;;;;6.40;4.60;;;1.40;99.90;;;;;;5026620;28;20325;-70
2022/01/19 02:02:41;;;;;;;4.57;4.13;;;1.30;99.90;;;;;;5024034;28;20177;-70
2022/01/19 02:05:10;;;;;;;4.80;4.40;;;1.30;99.90;;;;;;5024807;28;20206;-71
2022/01/19 02:08:00;;;;;;;6.00;4.77;;;1.30;99.90;;;;;;5025783;28;20235;-70
2022/01/19 02:10:55;;;;;;;7.33;5.00;;;1.20;99.90;;;;;;5020282;28;20207;-69
2022/01/19 02:21:44;;;;;;;7.03;5.07;;;0.90;99.90;;;;;;5035429;28;20196;-70
2022/01/19 02:24:14;;;;;;;6.80;4.90;;;0.80;99.90;;;;;;5029451;28;20261;-70
2022/01/19 02:50:59;;;;;;;6.40;5.77;;;0.40;99.90;;;;;;5029432;28;20674;-70
2022/01/19 02:53:24;;;;;;;10.37;6.10;;;0.40;99.90;;;;;;5030699;28;20200;-70
2022/01/19 02:55:50;;;;;;;8.13;5.83;;;0.40;99.90;;;;;;5028716;28;20184;-70
2022/01/19 02:58:20;;;;;;;7.57;6.10;;;0.50;99.90;;;;;;5025968;28;20199;-70
2022/01/19 03:08:43;;;;;;;7.73;5.60;;;0.60;99.90;;;;;;5025993;28;20238;-70
2022/01/19 03:09:14;;;;;;;5.87;5.27;;;0.70;99.90;;;;;;5022720;28;20204;-70
2022/01/19 03:11:40;;;;;;;7.83;5.53;;;0.70;99.90;;;;;;5030323;28;20188;-71
2022/01/19 03:14:08;;;;;;;6.30;5.20;;;0.70;99.90;;;;;;5022336;28;20682;-70
2022/01/19 03:16:34;;;;;;;10.07;5.70;;;0.60;99.90;;;;;;5023564;28;20541;-70
2022/01/19 03:19:00;;;;;;;5.93;4.83;;;0.60;99.90;;;;;;5034312;28;20204;-71
2022/01/19 03:21:26;;;;;;;9.67;6.50;;;0.50;99.90;;;;;;5021525;28;20208;-70
2022/01/19 03:23:51;;;;;;;6.00;4.87;;;0.40;99.90;;;;;;5020717;28;20208;-70
2022/01/19 03:26:17;;;;;;;5.63;4.90;;;0.30;99.90;;;;;;5033437;28;20181;-70
2022/01/19 03:28:42;;;;;;;8.83;4.80;;;0.30;99.90;;;;;;5025760;28;20208;-70
2022/01/19 03:31:08;;;;;;;5.30;4.80;;;0.30;99.90;;;;;;5024501;28;20187;-70
2022/01/19 03:33:34;;;;;;;6.60;5.13;;;0.30;99.90;;;;;;5023146;28;20213;-70
2022/01/19 03:35:59;;;;;;;10.40;5.60;;;0.20;99.90;;;;;;5026805;28;20184;-70
2022/01/19 03:38:25;;;;;;;5.60;4.87;;;0.20;99.90;;;;;;5017885;28;20215;-70
2022/01/19 03:40:51;;;;;;;5.90;5.00;;;0.10;99.90;;;;;;5028219;28;20185;-70
2022/01/19 03:43:16;;;;;;;7.60;5.10;;;0.00;99.90;;;;;;5022404;28;20342;-70
2022/01/19 03:45:50;;;;;;;6.50;5.27;;;-0.10;99.90;;;;;;5024473;28;20213;-70
2022/01/19 03:50:42;;;;;;;8.30;6.40;;;-0.20;99.90;;;;;;5033375;28;20220;-70
2022/01/19 03:53:07;;;;;;;7.87;5.33;;;-0.30;99.90;;;;;;5031514;28;20197;-70
2022/01/19 03:55:33;;;;;;;6.00;5.43;;;-0.30;99.90;;;;;;5026214;28;20185;-70
2022/01/19 03:57:59;;;;;;;6.90;5.50;;;-0.30;99.90;;;;;;5025639;28;20176;-71
2022/01/19 04:00:25;;;;;;;5.00;4.60;;;-0.30;99.90;;;;;;5024389;28;20659;-71
2022/01/19 04:02:51;;;;;;;8.30;5.40;;;-0.30;99.90;;;;;;5017134;28;20269;-71
2022/01/19 04:05:23;;;;;;;7.73;5.53;;;-0.40;99.90;;;;;;5022822;28;20185;-70
2022/01/19 04:07:49;;;;;;;7.87;5.70;;;-0.40;99.90;;;;;;5034566;28;20551;-70
2022/01/19 04:10:16;;;;;;;8.07;5.57;;;-0.50;99.90;;;;;;5031000;28;20208;-70
2022/01/19 04:12:46;;;;;;;7.43;5.40;;;-0.50;99.90;;;;;;5026257;28;20552;-70
2022/01/19 04:15:14;;;;;;;5.63;5.00;;;-0.60;99.90;;;;;;5032215;28;20181;-70
2022/01/19 04:17:46;;;;;;;6.40;5.50;;;-0.60;99.90;;;;;;5027681;28;20586;-70
2022/01/19 04:20:11;;;;;;;6.30;4.93;;;-0.60;99.90;;;;;;5027723;28;20185;-71
2022/01/19 04:22:37;;;;;;;8.83;5.37;;;-0.60;99.90;;;;;;5031850;28;20177;-70
2022/01/19 04:25:03;;;;;;;7.50;5.40;;;-0.60;99.90;;;;;;5029714;28;20196;-70
2022/01/19 04:30:11;;;;;;;6.13;4.90;;;-0.70;99.90;;;;;;5029197;28;20208;-71
2022/01/19 04:32:49;;;;;;;6.53;5.80;;;-0.70;99.90;;;;;;5032129;28;20213;-71
2022/01/19 04:35:20;;;;;;;6.33;5.20;;;-0.70;99.90;;;;;;5030271;28;20268;-71
2022/01/19 05:02:16;;;;;;;7.20;5.43;;;-0.80;99.90;;;;;;5026400;28;20230;-70
2022/01/19 05:07:27;;;;;;;8.17;6.90;;;-0.90;99.90;;;;;;5024807;28;20169;-71
2022/01/19 05:15:26;;;;;;;7.20;5.67;;;-1.10;99.90;;;;;;5026693;28;20182;-71
2022/01/19 05:17:52;;;;;;;8.93;6.97;;;-1.00;99.90;;;;;;5029196;28;20661;-70
2022/01/19 05:20:17;;;;;;;12.73;6.90;;;-1.00;99.90;;;;;;5031889;28;20226;-70
2022/01/19 05:22:43;;;;;;;7.63;6.10;;;-1.00;99.90;;;;;;5027620;28;20212;-70
2022/01/19 05:25:09;;;;;;;8.73;6.53;;;-1.10;99.90;;;;;;5029461;28;20197;-70
2022/01/19 05:27:34;;;;;;;9.50;5.83;;;-1.00;99.90;;;;;;5030226;28;20191;-70
2022/01/19 05:30:00;;;;;;;6.27;5.63;;;-1.00;99.90;;;;;;5025850;28;20663;-70
2022/01/19 05:32:26;;;;;;;8.50;5.97;;;-1.00;99.90;;;;;;5015760;28;20177;-70
2022/01/19 05:34:51;;;;;;;8.50;6.57;;;-1.00;99.90;;;;;;5020562;28;20207;-70
2022/01/19 05:37:17;;;;;;;8.47;6.10;;;-1.00;99.90;;;;;;5020394;28;20671;-70
2022/01/19 05:39:43;;;;;;;7.23;6.33;;;-1.10;99.90;;;;;;5034164;28;20176;-70
2022/01/19 05:42:15;;;;;;;9.30;6.57;;;-1.10;99.90;;;;;;5021054;28;20238;-70
2022/01/19 05:44:45;;;;;;;8.90;6.00;;;-1.10;99.90;;;;;;5015848;28;20205;-70
2022/01/19 05:47:11;;;;;;;7.43;6.13;;;-1.20;99.90;;;;;;5019970;28;20268;-70
2022/01/19 05:49:38;;;;;;;9.27;5.60;;;-1.20;99.90;;;;;;5035691;28;20197;-70
2022/01/19 05:52:05;;;;;;;9.57;6.30;;;-1.20;99.90;;;;;;5029911;28;20523;-71
2022/01/19 05:54:31;;;;;;;7.90;6.03;;;-1.20;99.90;;;;;;5023960;28;20224;-72
2022/01/19 05:56:58;;;;;;;8.57;6.83;;;-1.30;99.90;;;;;;5034225;28;20652;-72
2022/01/19 05:59:24;;;;;;;10.03;6.60;;;-1.30;99.90;;;;;;5034371;28;20171;-72
2022/01/19 06:01:51;;;;;;;8.37;7.47;;;-1.40;99.90;;;;;;5035814;28;20197;-72
2022/01/19 06:04:16;;;;;;;13.47;7.03;;;-1.40;99.90;;;;;;5029714;28;20203;-72
2022/01/19 06:06:42;;;;;;;9.47;6.83;;;-1.40;99.90;;;;;;5029726;28;20185;-72
2022/01/19 06:09:22;;;;;;;8.90;7.20;;;-1.40;99.90;;;;;;5029128;28;20208;-72
2022/01/19 06:11:48;;;;;;;10.73;7.20;;;-1.40;99.90;;;;;;5039341;28;20671;-71
2022/01/19 06:14:14;;;;;;;10.87;7.50;;;-1.40;99.90;;;;;;5034278;28;20833;-71
2022/01/19 06:16:41;;;;;;;9.97;7.83;;;-1.40;99.90;;;;;;5038099;28;20246;-71
2022/01/19 06:19:06;;;;;;;9.50;7.07;;;-1.40;99.90;;;;;;5033649;28;20200;-71
2022/01/19 06:21:32;;;;;;;10.07;6.70;;;-1.40;99.90;;;;;;5035110;28;20267;-72
2022/01/19 06:23:58;;;;;;;11.23;6.97;;;-1.40;99.90;;;;;;5035028;28;20201;-73
2022/01/19 06:26:24;;;;;;;14.53;8.13;;;-1.40;99.90;;;;;;5038562;28;20723;-71
2022/01/19 06:28:51;;;;;;;11.40;6.93;;;-1.40;99.90;;;;;;5031098;28;20188;-71
2022/01/19 06:31:17;;;;;;;11.70;7.43;;;-1.40;99.90;;;;;;5031750;28;20173;-71
2022/01/19 06:33:42;;;;;;;8.93;6.93;;;-1.40;99.90;;;;;;5030569;28;20755;-71
2022/01/19 06:36:08;;;;;;;8.93;7.40;;;-1.50;99.90;;;;;;5026585;28;20173;-71
2022/01/19 06:38:34;;;;;;;10.17;7.37;;;-1.50;99.90;;;;;;5029639;28;20547;-69
2022/01/19 06:40:59;;;;;;;11.70;7.13;;;-1.60;99.90;;;;;;5027550;28;20184;-70
2022/01/19 06:43:25;;;;;;;18.33;7.60;;;-1.60;99.90;;;;;;5018953;28;20272;-70
2022/01/19 06:45:52;;;;;;;11.17;7.63;;;-1.60;99.90;;;;;;5033275;28;20191;-70
2022/01/19 06:48:17;;;;;;;10.23;6.87;;;-1.60;99.90;;;;;;5032017;28;20192;-72
2022/01/19 06:50:43;;;;;;;10.13;7.10;;;-1.60;99.90;;;;;;5039537;28;20546;-72
2022/01/19 06:53:09;;;;;;;11.10;6.90;;;-1.50;99.90;;;;;;5025621;28;20229;-72
2022/01/19 06:55:34;;;;;;;11.87;7.43;;;-1.60;99.90;;;;;;5023156;28;20184;-72
2022/01/19 06:58:00;;;;;;;10.67;7.10;;;-1.50;99.90;;;;;;5027859;28;20177;-75
2022/01/19 07:00:26;;;;;;;9.87;7.77;;;-1.60;99.90;;;;;;5030279;28;20208;-73
2022/01/19 07:02:53;;;;;;;16.10;8.03;;;-1.60;99.90;;;;;;5030558;28;20181;-74
2022/01/19 07:05:18;;;;;;;9.53;7.80;;;-1.60;99.90;;;;;;5031649;28;20653;-74
2022/01/19 07:07:44;;;;;;;9.90;7.40;;;-1.60;99.90;;;;;;5028013;28;20192;-71
2022/01/19 07:10:10;;;;;;;8.47;6.93;;;-1.60;99.90;;;;;;5026200;28;20305;-72
2022/01/19 07:12:36;;;;;;;8.27;7.27;;;-1.60;99.90;;;;;;5030110;28;20209;-71
2022/01/19 07:15:03;;;;;;;10.40;7.50;;;-1.50;99.90;;;;;;5033265;28;20196;-71
2022/01/19 07:17:29;;;;;;;11.80;7.03;;;-1.50;99.90;;;;;;5031153;28;20180;-71
2022/01/19 07:19:54;;;;;;;9.97;6.83;;;-1.50;99.90;;;;;;5030366;28;20209;-73
2022/01/19 07:22:20;;;;;;;13.83;7.93;;;-1.50;99.90;;;;;;5024645;28;20181;-72
2022/01/19 07:24:46;;;;;;;11.57;8.60;;;-1.40;99.90;;;;;;5029192;28;20208;-71
2022/01/19 07:27:11;;;;;;;11.03;8.03;;;-1.40;99.90;;;;;;5023467;28;20195;-71
2022/01/19 07:29:37;;;;;;;8.27;7.17;;;-1.40;99.90;;;;;;5029456;28;20276;-71
2022/01/19 07:32:03;;;;;;;9.23;7.90;;;-1.30;99.90;;;;;;5028663;28;20188;-72
2022/01/19 07:34:29;;;;;;;9.30;7.90;;;-1.30;99.90;;;;;;5028023;28;20233;-72
2022/01/19 07:36:55;;;;;;;15.17;8.67;;;-1.20;99.90;;;;;;5021862;28;20185;-71
2022/01/19 07:39:22;;;;;;;8.50;7.27;;;-1.20;99.90;;;;;;5020020;28;20189;-71
2022/01/19 07:41:48;;;;;;;10.47;7.77;;;-1.20;99.90;;;;;;5018076;28;20243;-72
2022/01/19 07:44:14;;;;;;;8.97;7.40;;;-1.10;99.90;;;;;;5018790;28;20228;-72
2022/01/19 07:46:41;;;;;;;10.73;7.00;;;-1.10;99.90;;;;;;5021427;28;20216;-72
2022/01/19 07:49:06;;;;;;;10.60;8.37;;;-1.10;99.90;;;;;;5017735;28;20212;-72
2022/01/19 07:51:32;;;;;;;12.33;8.17;;;-1.00;99.90;;;;;;5025979;28;20722;-71
2022/01/19 07:53:58;;;;;;;16.23;11.67;;;-1.00;99.90;;;;;;5032227;28;20232;-72
2022/01/19 07:56:24;;;;;;;15.50;8.67;;;-1.00;99.90;;;;;;5023320;28;20233;-71
2022/01/19 07:58:50;;;;;;;11.20;7.67;;;-0.90;99.90;;;;;;5029331;28;20196;-72
2022/01/19 08:01:16;;;;;;;10.20;7.60;;;-0.80;99.90;;;;;;5031028;28;20242;-72
2022/01/19 08:03:42;;;;;;;8.70;7.80;;;-0.80;99.90;;;;;;5027789;28;20200;-71
2022/01/19 08:06:08;;;;;;;11.00;8.23;;;-0.70;99.90;;;;;;5028595;28;20184;-72
2022/01/19 08:08:35;;;;;;;9.07;7.80;;;-0.60;99.90;;;;;;5029954;28;20223;-72
2022/01/19 08:11:01;;;;;;;10.73;8.47;;;-0.50;99.90;;;;;;5026915;28;20228;-71
2022/01/19 08:13:27;;;;;;;10.33;7.73;;;-0.50;99.90;;;;;;5031964;28;20215;-70
2022/01/19 08:15:53;;;;;;;12.53;9.07;;;-0.40;99.90;;;;;;5027902;28;20647;-70
2022/01/19 08:18:18;;;;;;;12.60;8.07;;;-0.30;99.90;;;;;;5022753;28;20181;-72
2022/01/19 08:20:44;;;;;;;14.80;8.43;;;-0.30;99.90;;;;;;5031392;28;20185;-72
2022/01/19 08:23:10;;;;;;;7.93;7.13;;;-0.30;99.90;;;;;;5028877;28;20268;-72
2022/01/19 08:25:36;;;;;;;9.03;7.40;;;-0.20;99.90;;;;;;5029797;28;20228;-72
2022/01/19 08:28:03;;;;;;;10.30;7.23;;;-0.10;99.90;;;;;;5025443;28;20683;-72
2022/01/19 08:30:28;;;;;;;9.17;7.43;;;0.00;99.90;;;;;;5030482;28;20220;-74
2022/01/19 08:32:54;;;;;;;9.53;7.60;;;0.10;99.90;;;;;;5028805;28;20184;-72
2022/01/19 08:35:20;;;;;;;9.57;8.23;;;0.10;99.90;;;;;;5027212;28;20180;-71
2022/01/19 08:37:46;;;;;;;11.77;7.27;;;0.10;99.90;;;;;;5032278;28;20595;-71
2022/01/19 08:40:13;;;;;;;7.77;6.60;;;0.20;99.90;;;;;;5023585;28;20196;-73
2022/01/19 08:42:38;;;;;;;10.30;7.40;;;0.20;99.90;;;;;;5022250;28;20205;-72
2022/01/19 08:45:07;;;;;;;9.37;6.90;;;0.30;99.90;;;;;;5022472;28;20702;-71
2022/01/19 08:47:38;;;;;;;7.00;6.33;;;0.30;99.90;;;;;;5021923;28;20177;-71
2022/01/19 08:50:10;;;;;;;8.93;6.87;;;0.40;99.90;;;;;;5026882;28;20288;-71
2022/01/19 08:52:36;;;;;;;7.67;6.73;;;0.50;99.90;;;;;;5027456;28;20256;-70
2022/01/19 08:55:03;;;;;;;10.87;7.13;;;0.50;99.90;;;;;;5022094;28;20284;-71
2022/01/19 08:57:28;;;;;;;11.03;7.07;;;0.60;99.90;;;;;;5024199;28;20188;-71
2022/01/19 08:59:54;;;;;;;6.77;6.17;;;0.70;99.90;;;;;;5024996;28;20196;-71
2022/01/19 09:02:20;;;;;;;7.87;5.70;;;0.70;99.90;;;;;;5034144;28;20644;-71
2022/01/19 09:04:46;;;;;;;6.37;5.73;;;0.70;99.90;;;;;;5023019;28;20201;-72
2022/01/19 09:07:12;;;;;;;6.47;5.53;;;0.70;99.90;;;;;;5035527;28;20191;-71
2022/01/19 09:09:38;;;;;;;7.40;4.43;;;0.80;99.90;;;;;;5037441;28;20248;-71
2022/01/19 09:12:04;;;;;;;7.93;5.83;;;0.70;99.90;;;;;;5026770;28;20208;-71
2022/01/19 09:14:31;;;;;;;6.80;5.87;;;0.90;99.90;;;;;;5016311;28;20215;-71
2022/01/19 09:16:57;;;;;;;7.17;5.70;;;1.00;99.90;;;;;;5028331;28;20643;-70
2022/01/19 09:19:23;;;;;;;6.90;5.43;;;1.20;99.90;;;;;;5026884;28;20183;-72
2022/01/19 09:21:49;;;;;;;6.60;5.60;;;1.40;99.90;;;;;;5031571;28;20192;-72
2022/01/19 09:24:16;;;;;;;9.07;5.13;;;1.60;99.90;;;;;;5026816;28;20208;-72
2022/01/19 09:26:41;;;;;;;6.97;4.93;;;1.80;99.90;;;;;;5028858;28;20188;-71
2022/01/19 09:29:07;;;;;;;6.13;4.80;;;2.10;99.90;;;;;;5028010;28;20218;-74
2022/01/19 09:31:34;;;;;;;7.93;5.33;;;2.10;99.90;;;;;;5026142;28;20180;-71
2022/01/19 09:34:08;;;;;;;7.80;5.20;;;2.20;99.90;;;;;;5015960;28;20221;-71
2022/01/19 09:36:44;;;;;;;8.00;5.17;;;2.80;99.90;;;;;;5020906;28;20640;-69
2022/01/19 09:39:11;;;;;;;8.67;4.93;;;4.60;99.90;;;;;;5022782;28;20188;-71
2022/01/19 09:41:37;;;;;;;6.00;3.90;;;6.80;99.90;;;;;;5020250;28;20628;-70
2022/01/19 09:44:03;;;;;;;5.15;4.30;;;9.10;99.90;;;;;;5016775;28;20197;-71
2022/01/19 09:46:29;;;;;;;6.55;3.88;;;10.50;99.90;;;;;;5017483;28;21330;-71
2022/01/19 09:48:56;;;;;;;5.75;4.20;;;12.00;97.80;;;;;;5013149;28;20275;-71
2022/01/19 09:51:22;;;;;;;4.82;4.18;;;12.90;92.90;;;;;;5017989;28;20182;-71
2022/01/19 09:53:48;;;;;;;6.03;4.43;;;13.60;87.70;;;;;;5022921;28;20197;-72
2022/01/19 09:56:16;;;;;;;6.43;3.70;;;14.70;81.60;;;;;;5021781;28;20184;-72
2022/01/19 09:58:42;;;;;;;6.40;3.88;;;15.50;74.10;;;;;;5025614;28;20180;-74
2022/01/19 10:01:08;;;;;;;7.13;4.57;;;15.70;69.60;;;;;;5019989;28;20204;-74
2022/01/19 10:03:34;;;;;;;7.25;4.50;;;13.70;70.40;;;;;;5021674;28;20200;-74
2022/01/19 10:06:11;;;;;;;5.13;4.43;;;12.30;77.30;;;;;;5025286;28;20177;-74
2022/01/19 10:08:37;;;;;;;5.93;3.88;;;11.40;79.00;;;;;;5023449;28;20644;-74
2022/01/19 10:11:29;;;;;;;8.93;4.65;;;10.50;83.00;;;;;;5023886;28;20208;-75
2022/01/19 10:17:00;;;;;;;8.35;5.68;;;8.50;90.50;;;;;;5026553;28;20318;-71
2022/01/19 10:19:34;;;;;;;7.32;4.35;;;7.20;93.30;;;;;;5018945;28;20654;-73
2022/01/19 10:22:21;;;;;;;7.78;5.28;;;6.50;96.50;;;;;;5019100;28;20193;-72
2022/01/19 10:25:00;;;;;;;7.03;4.93;;;5.80;99.90;;;;;;5024204;28;20707;-72
2022/01/19 10:27:38;;;;;;;5.57;5.07;;;5.40;99.90;;;;;;5028150;28;20651;-71
2022/01/19 10:30:07;;;;;;;8.13;5.57;;;5.20;99.90;;;;;;5023459;28;20197;-71
2022/01/19 10:32:43;;;;;;;10.15;6.60;;;4.90;99.90;;;;;;5019512;28;20173;-71
2022/01/19 10:35:20;;;;;;;7.30;5.70;;;4.50;99.90;;;;;;5023851;28;20293;-71
2022/01/19 10:37:48;;;;;;;11.67;6.37;;;4.10;99.90;;;;;;5029642;28;20258;-72
2022/01/19 10:40:18;;;;;;;7.83;6.40;;;3.90;99.90;;;;;;5029173;28;20178;-72
2022/01/19 10:42:44;;;;;;;6.60;4.20;;;3.80;99.90;;;;;;5027142;28;20185;-72
2022/01/19 10:45:11;;;;;;;9.73;6.07;;;3.60;99.90;;;;;;5027399;28;20197;-70
2022/01/19 10:47:48;;;;;;;8.97;6.10;;;3.50;99.90;;;;;;5026006;28;20185;-72
2022/01/19 10:50:28;;;;;;;8.20;6.03;;;3.50;99.90;;;;;;5025860;28;20195;-71
2022/01/19 10:53:00;;;;;;;11.53;7.47;;;3.60;99.90;;;;;;5028518;28;20268;-71
2022/01/19 10:55:42;;;;;;;7.27;5.33;;;3.50;99.90;;;;;;5028669;28;20276;-71
2022/01/19 10:58:13;;;;;;;7.70;5.40;;;3.40;99.90;;;;;;5026501;28;20196;-70
2022/01/19 11:00:47;;;;;;;12.13;7.33;;;3.30;99.90;;;;;;5029286;28;20200;-71
2022/01/19 11:03:15;;;;;;;9.53;6.50;;;3.10;99.90;;;;;;5037499;28;20215;-70
2022/01/19 11:05:46;;;;;;;7.53;5.03;;;3.20;99.90;;;;;;5030159;28;20188;-71
2022/01/19 11:08:13;;;;;;;9.97;6.97;;;3.30;99.90;;;;;;5029320;28;20189;-70
2022/01/19 11:10:40;;;;;;;10.80;7.13;;;3.30;99.90;;;;;;5026235;28;20216;-70
2022/01/19 11:13:13;;;;;;;10.87;6.70;;;3.10;99.90;;;;;;5033202;28;20226;-70
2022/01/19 11:15:40;;;;;;;12.97;7.60;;;3.10;99.90;;;;;;5033402;28;20189;-71
2022/01/19 11:18:05;;;;;;;10.57;8.13;;;3.10;99.90;;;;;;5023485;28;20181;-71
2022/01/19 11:20:41;;;;;;;14.30;7.27;;;3.20;99.90;;;;;;5029332;28;20599;-71
2022/01/19 11:23:26;;;;;;;11.63;8.67;;;3.20;99.90;;;;;;5031644;28;20265;-71
2022/01/19 11:26:04;;;;;;;9.63;7.77;;;3.10;99.90;;;;;;5032089;28;20267;-71
2022/01/19 11:28:32;;;;;;;10.87;8.60;;;2.80;99.90;;;;;;5032343;28;20212;-71
2022/01/19 11:30:57;;;;;;;11.40;9.20;;;2.50;99.90;;;;;;5027595;28;20920;-71
2022/01/19 11:33:28;;;;;;;12.03;9.33;;;2.40;99.90;;;;;;5029215;28;20207;-71
2022/01/19 11:36:05;;;;;;;14.30;10.30;;;2.40;99.90;;;;;;5031721;28;20209;-71
2022/01/19 11:38:45;;;;;;;12.53;9.27;;;2.50;99.90;;;;;;5028728;28;20583;-72
2022/01/19 11:41:14;;;;;;;16.00;11.93;;;2.50;99.90;;;;;;5026447;28;20216;-72
2022/01/19 11:43:52;;;;;;;21.37;13.77;;;2.30;99.90;;;;;;5028842;28;20204;-72
2022/01/19 11:46:39;;;;;;;15.93;12.27;;;2.30;99.90;;;;;;5024814;28;20176;-71
2022/01/19 11:49:07;;;;;;;16.67;11.70;;;2.50;99.90;;;;;;5024205;28;20551;-73
2022/01/19 11:51:42;;;;;;;15.77;10.50;;;2.50;99.90;;;;;;5034727;28;20232;-73
2022/01/19 11:54:21;;;;;;;17.73;12.10;;;2.30;99.90;;;;;;5028089;28;20216;-73
2022/01/19 11:56:58;;;;;;;17.33;12.87;;;2.10;99.90;;;;;;5025630;28;20686;-74
2022/01/19 11:59:27;;;;;;;17.20;12.67;;;2.20;99.90;;;;;;5030440;28;20181;-73
2022/01/19 12:01:53;;;;;;;16.57;10.03;;;2.30;99.90;;;;;;5031774;28;20722;-73
2022/01/19 12:04:21;;;;;;;16.83;13.07;;;2.40;99.90;;;;;;5029904;28;20196;-73
2022/01/19 12:06:48;;;;;;;16.60;11.80;;;2.40;99.90;;;;;;5029890;28;20645;-72
2022/01/19 12:09:16;;;;;;;15.90;11.67;;;2.50;99.90;;;;;;5027442;28;20203;-72
2022/01/19 12:11:52;;;;;;;15.60;12.43;;;2.50;99.90;;;;;;5020280;28;20181;-76
2022/01/19 12:14:29;;;;;;;16.07;12.30;;;2.40;99.90;;;;;;5029054;28;20529;-75
2022/01/19 12:17:02;;;;;;;14.07;10.83;;;2.20;99.90;;;;;;5028127;28;20180;-75
2022/01/19 12:19:41;;;;;;;16.17;13.10;;;2.40;99.90;;;;;;5028584;28;20585;-76
2022/01/19 12:22:23;;;;;;;16.17;13.30;;;2.40;99.90;;;;;;5030294;28;20224;-76
2022/01/19 12:24:56;;;;;;;17.03;11.93;;;2.50;99.90;;;;;;5027010;28;20212;-75
2022/01/19 12:27:31;;;;;;;15.93;10.87;;;2.50;99.90;;;;;;5020515;28;20600;-75
2022/01/19 12:30:07;;;;;;;16.67;12.63;;;2.60;99.90;;;;;;5025600;28;20211;-75
2022/01/19 12:32:32;;;;;;;15.17;11.80;;;2.50;99.90;;;;;;5025891;28;20222;-74
2022/01/19 12:35:13;;;;;;;16.50;10.80;;;2.60;99.90;;;;;;5033849;28;20687;-75
2022/01/19 12:37:49;;;;;;;16.30;13.10;;;2.70;99.90;;;;;;5037897;28;20184;-75
2022/01/19 12:40:18;;;;;;;18.67;13.93;;;2.70;99.90;;;;;;5035421;28;20278;-74
2022/01/19 12:42:56;;;;;;;18.17;13.20;;;2.60;99.90;;;;;;5024028;28;20192;-72
2022/01/19 12:45:43;;;;;;;16.80;12.87;;;2.70;99.90;;;;;;5026118;28;20189;-71
2022/01/19 12:48:09;;;;;;;18.40;12.37;;;2.70;99.90;;;;;;5035486;28;20223;-71
2022/01/19 12:50:47;;;;;;;13.50;10.53;;;2.90;99.90;;;;;;5030780;28;20209;-71
2022/01/19 12:53:17;;;;;;;16.03;11.93;;;3.00;99.90;;;;;;5030466;28;20204;-71
2022/01/19 12:55:47;;;;;;;16.43;11.73;;;3.10;99.90;;;;;;5028464;28;20334;-71
2022/01/19 12:58:19;;;;;;;16.87;12.37;;;3.00;99.90;;;;;;5039188;28;20172;-71
2022/01/19 13:00:55;;;;;;;15.70;12.43;;;3.20;99.90;;;;;;5029465;28;20294;-72
2022/01/19 13:03:30;;;;;;;15.97;12.60;;;3.30;99.90;;;;;;5024720;28;20227;-71
2022/01/19 13:06:01;;;;;;;15.13;11.97;;;3.50;99.90;;;;;;5029222;28;20194;-72
2022/01/19 13:09:07;;;;;;;15.83;13.13;;;3.50;99.90;;;;;;5030895;28;20255;-72
2022/01/19 13:11:41;;;;;;;17.23;12.80;;;3.60;99.90;;;;;;5028008;28;20548;-72
2022/01/19 13:14:09;;;;;;;17.27;11.97;;;3.90;99.90;;;;;;5027297;28;20192;-71
2022/01/19 13:16:38;;;;;;;13.63;11.30;;;4.00;99.90;;;;;;5031054;28;20200;-71
2022/01/19 13:19:07;;;;;;;12.90;11.45;;;4.20;99.90;;;;;;5028936;28;20266;-72
2022/01/19 13:21:35;;;;;;;15.45;10.80;;;4.30;99.90;;;;;;5026697;28;20172;-71
2022/01/19 13:24:15;;;;;;;16.00;12.07;;;4.20;99.90;;;;;;5029734;28;20212;-72
2022/01/19 13:26:49;;;;;;;12.13;10.67;;;4.30;99.90;;;;;;5029342;28;20258;-71
2022/01/19 13:29:22;;;;;;;13.87;11.57;;;4.30;99.90;;;;;;5020106;28;20245;-73
2022/01/19 13:32:19;;;;;;;18.17;12.23;;;4.40;99.90;;;;;;5029030;28;20553;-71
2022/01/19 13:35:03;;;;;;;16.60;11.60;;;4.40;99.90;;;;;;5030190;28;20211;-71
2022/01/19 13:37:48;;;;;;;14.50;11.82;;;4.20;99.90;;;;;;5026976;28;20889;-71
2022/01/19 13:40:19;;;;;;;15.40;10.73;;;4.10;99.90;;;;;;5027507;28;20267;-71
2022/01/19 13:42:57;;;;;;;14.17;12.63;;;4.20;99.90;;;;;;5031083;28;20546;-71
2022/01/19 13:50:45;;;;;;;13.13;11.82;;;4.60;99.90;;;;;;5032629;28;20613;-71
2022/01/19 13:53:11;;;;;;;20.63;10.55;;;4.40;99.90;;;;;;5029244;28;20185;-71
2022/01/19 13:55:38;;;;;;;13.40;10.52;;;4.40;99.90;;;;;;5030745;28;20183;-71
2022/01/19 13:58:13;;;;;;;13.80;12.05;;;4.20;99.90;;;;;;5027820;28;20191;-71
2022/01/19 14:00:57;;;;;;;15.23;12.50;;;4.20;99.90;;;;;;5030262;28;20223;-71
2022/01/19 14:03:25;;;;;;;13.57;11.07;;;4.30;99.90;;;;;;5027063;28;20295;-71
2022/01/19 14:05:53;;;;;;;14.50;10.05;;;4.50;99.90;;;;;;5026592;28;20181;-71
2022/01/19 14:08:31;;;;;;;15.80;11.82;;;4.60;99.90;;;;;;5023672;28;20188;-71
2022/01/19 14:10:58;;;;;;;14.77;11.30;;;4.60;99.90;;;;;;5026460;28;20577;-71
2022/01/19 14:13:35;;;;;;;7.82;6.45;;;4.50;99.90;;;;;;5031559;28;20192;-71
2022/01/19 14:16:24;;;;;;;15.95;10.77;;;4.60;99.90;;;;;;5027949;28;20169;-71
2022/01/19 14:19:19;;;;;;;13.45;10.50;;;4.60;99.90;;;;;;5030954;28;20652;-71
2022/01/19 14:22:06;;;;;;;14.35;10.55;;;5.00;99.90;;;;;;5029133;28;20178;-71
2022/01/19 14:24:54;;;;;;;12.25;11.05;;;5.50;99.90;;;;;;5022705;28;20208;-71
2022/01/19 14:27:23;;;;;;;13.48;10.90;;;5.40;99.90;;;;;;5032488;28;20189;-71
2022/01/19 14:30:04;;;;;;;12.93;11.00;;;5.20;99.90;;;;;;5028233;28;20204;-71
2022/01/19 14:32:47;;;;;;;14.70;10.45;;;5.20;99.90;;;;;;5030055;28;20177;-71
2022/01/19 14:35:22;;;;;;;14.18;10.77;;;5.10;99.90;;;;;;5033079;28;20184;-71
2022/01/19 14:38:01;;;;;;;13.02;10.20;;;5.00;99.90;;;;;;5029362;28;20254;-71